Terminal Aerodrome Forecast
Issued by NWS Cleveland, OH

Home | Current Version | Previous Version | Text Only | Print | Product List | Glossary On
Versions: 1 2 3 4 5 6 7 8 9 10 11 12 13 14 15 16 17 18 19 20 21 22 23 24 25 26 27 28 29 30 31 32 33 34 35 36
000
FTUS41 KCLE 260300 AAA
TAFCLE
TAF AMD
KCLE 260310Z 2603/2706 04015KT P6SM -SN SCT025 OVC060
      TEMPO 2604/2608 5SM -SN OVC025
     FM261000 03012KT 6SM -SN OVC035
      TEMPO 2612/2616 OVC025
     FM261600 36012KT P6SM OVC025
     FM270200 36007KT P6SM OVC015=

USA.gov is the U.S. government's official web portal to all federal, state and local government web resources and services.